Flight Track Log - Related Links

Times and Time Zones

All times are in EDT time to prevent confusion due to time zone crossing. See the DAL110 flight status page for this flight to view local times or setup timezone preferences in your user account.

Time Position Orientation Groundspeed Altitude Reporting Facility
EDT Latitude Longitude Course Direction KTS MPH feet Rate Location/Type
Mon 08:47:42 AM 33.6470 -84.4110 90° East 173 199 900  Level FlightAware ADS-B
Mon 08:47:52 AM 33.6470 -84.4020 90° East 171 197 1,300 1,950 Climbing FlightAware ADS-B
Mon 08:48:22 AM 33.6500 -84.3710 83° East 199 229 2,200 1,600 Climbing FlightAware ADS-B
Mon 08:48:37 AM 33.6550 -84.3560 68° East 220 253 2,500 1,650 Climbing FlightAware ADS-B
Mon 08:49:02 AM 33.6660 -84.3250 67° East 251 289 3,300 2,618 Climbing FlightAware ADS-B
Mon 08:49:32 AM 33.6850 -84.2880 58° Northeast 272 313 4,900 3,333 Climbing FlightAware ADS-B
Mon 08:49:47 AM 33.7000 -84.2780 29° Northeast 274 315 5,800 3,800 Climbing FlightAware ADS-B
Mon 08:50:02 AM 33.7210 -84.2750 North 280 322 6,800 4,320 Climbing FlightAware ADS-B
Mon 08:50:12 AM 33.7340 -84.2760 356° North 278 320 7,600 3,600 Climbing FlightAware ADS-B
Mon 08:50:42 AM 33.7740 -84.2800 355° North 279 321 9,200 2,667 Climbing FlightAware ADS-B
Mon 08:50:57 AM 33.7900 -84.2870 340° North 282 325 9,600 2,400 Climbing FlightAware ADS-B
Mon 08:51:12 AM 33.8050 -84.3040 317° Northwest 289 333 10,400 3,600 Climbing FlightAware ADS-B
Mon 08:51:22 AM 33.8110 -84.3190 296° West 292 336 11,100 3,840 Climbing FlightAware ADS-B
Mon 08:51:37 AM 33.8140 -84.3420 279° West 298 343 12,000 2,600 Climbing FlightAware ADS-B
Mon 08:52:22 AM 33.8130 -84.4160 269° West 320 368 13,700 1,765 Climbing FlightAware ADS-B
Mon 08:53:02 AM 33.8110 -84.5020 268° West 385 443 14,500 3,375 Climbing FlightAware ADS-B
Mon 08:53:42 AM 33.8110 -84.5810 270° West 356 410 18,200 3,411 Climbing FlightAware ADS-B
Mon 08:54:37 AM 33.8100 -84.6920 269° West 407 468 19,900 2,067 Climbing FlightAware ADS-B
Mon 08:55:12 AM 33.8080 -84.7750 268° West 428 493 21,300 2,682 Climbing FlightAware ADS-B
Mon 08:57:36 AM 33.7761 -85.1390 264° West 467 537 27,900 2,663 Climbing FlightAware ADS-B
Mon 08:57:52 AM 33.7711 -85.1810 262° West 474 545 28,400 2,182 Climbing FlightAware ADS-B
Mon 08:58:09 AM 33.7706 -85.2259 269° West 478 550 29,100 2,280 Climbing FlightAware ADS-B
Mon 08:58:42 AM 33.7809 -85.3128 278° West 480 552 30,300 2,049 Climbing FlightAware ADS-B
Mon 08:58:50 AM 33.7842 -85.3332 281° West 487 560 30,500 2,143 Climbing FlightAware ADS-B
Mon 08:59:24 AM 33.7999 -85.4242 282° West 491 565 31,800 2,625 Climbing FlightAware ADS-B
Mon 08:59:54 AM 33.8141 -85.5051 282° West 485 558 33,300 2,625 Climbing FlightAware ADS-B
Mon 09:00:28 AM 33.8290 -85.5922 282° West 481 554 34,600 -65 Climbing FlightAware ADS-B
Mon 09:01:27 AM 33.8450 -85.7000 280° West 485 558 33,200 -848 Descending FlightAware ADS-B
Mon 09:02:07 AM 33.8600 -85.7900 281° West 485 558 33,200  Level FlightAware ADS-B
Mon 09:02:47 AM 33.8740 -85.8800 281° West 485 558 33,200  Level FlightAware ADS-B
Mon 09:03:27 AM 33.8890 -85.9700 281° West 485 558 33,200  Level FlightAware ADS-B
Mon 09:04:07 AM 33.9040 -86.0610 281° West 485 558 33,200  Level FlightAware ADS-B
Mon 09:04:57 AM 33.9220 -86.1740 281° West 485 558 33,200  Level FlightAware ADS-B
Mon 09:05:37 AM 33.9360 -86.2640 281° West 485 558 33,200 3,200 Level FlightAware ADS-B
Mon 09:06:27 AM 34.0900 -86.4860 310° West 484 557 38,000 3,512 Climbing FlightAware ADS-B
Mon 09:06:59 AM 34.1179 -86.5838 289° West 484 557 38,000  Level FlightAware ADS-B
Mon 09:07:46 AM 34.1520 -86.7048 289° West 484 557 38,000  Level FlightAware ADS-B
Mon 09:08:36 AM 34.1875 -86.8322 289° West 484 557 38,000  Level FlightAware ADS-B
Mon 09:09:44 AM 34.2269 -86.9833 289° West 497 572 38,000  Level Memphis Center
Mon 09:10:44 AM 34.2708 -87.1400 289° West 496 571 38,000  Level Memphis Center
Mon 09:11:44 AM 34.3208 -87.3042 290° West 485 558 38,000  Level Memphis Center
Mon 09:12:44 AM 34.3578 -87.4589 286° West 476 548 38,000  Level Memphis Center
Mon 09:13:44 AM 34.4031 -87.6133 290° West 481 554 38,000  Level Memphis Center
Mon 09:14:44 AM 34.4461 -87.7631 289° West 476 548 38,000  Level Memphis Center
Mon 09:15:44 AM 34.4825 -87.9131 286° West 476 548 38,000  Level Memphis Center
Mon 09:16:44 AM 34.5231 -88.0683 288° West 476 548 38,000  Level Memphis Center
Mon 09:17:44 AM 34.5656 -88.2261 288° West 488 562 38,000  Level Memphis Center
Mon 09:18:44 AM 34.6056 -88.3764 288° West 488 562 38,000  Level Memphis Center
Mon 09:19:44 AM 34.6408 -88.5094 288° West 488 562 38,000  Level Memphis Center
Mon 09:20:44 AM 34.6806 -88.6600 288° West 469 540 38,000  Level Memphis Center
Mon 09:21:44 AM 34.7181 -88.8133 287° West 475 547 38,000  Level Memphis Center
Mon 09:22:44 AM 34.7575 -88.9644 288° West 475 547 38,000  Level Memphis Center
Mon 09:23:44 AM 34.8008 -89.1281 288° West 475 547 38,000  Level Memphis Center
Mon 09:24:44 AM 34.8378 -89.2767 287° West 466 536 38,000  Level Memphis Center
Mon 09:25:44 AM 34.8764 -89.4231 288° West 461 531 38,000  Level Memphis Center
Mon 09:26:44 AM 34.9172 -89.5694 289° West 455 524 38,000  Level Memphis Center
Mon 09:27:44 AM 34.9472 -89.7289 283° West 461 531 38,000  Level Memphis Center
Mon 09:28:44 AM 34.9939 -89.8703 292° West 491 565 38,000  Level Memphis Center
Mon 09:29:44 AM 35.0214 -90.0225 282° West 475 547 38,000  Level Memphis Center
Mon 09:30:44 AM 35.0406 -90.1922 278° West 463 533 38,000  Level Memphis Center
Mon 09:31:44 AM 35.0533 -90.3469 276° West 463 533 38,000  Level Memphis Center
Mon 09:32:44 AM 35.0697 -90.5042 277° West 463 533 38,000  Level Memphis Center
Mon 09:33:44 AM 35.0864 -90.6617 277° West 463 533 38,000  Level Memphis Center
Mon 09:34:44 AM 35.1003 -90.8164 276° West 463 533 38,000  Level Memphis Center
Mon 09:35:44 AM 35.1164 -90.9714 277° West 463 533 38,000  Level Memphis Center
Mon 09:36:44 AM 35.1344 -91.1264 278° West 458 527 38,000  Level Memphis Center
Mon 09:37:44 AM 35.1458 -91.2814 275° West 463 533 38,000  Level Memphis Center
Mon 09:38:44 AM 35.1572 -91.4161 276° West 458 527 38,000  Level Memphis Center
Mon 09:39:44 AM 35.1725 -91.5689 277° West 458 527 38,000  Level Memphis Center
Mon 09:40:44 AM 35.1836 -91.7239 275° West 463 533 38,000  Level Memphis Center
Mon 09:41:44 AM 35.1983 -91.8767 277° West 463 533 38,000  Level Memphis Center
Mon 09:42:44 AM 35.2111 -92.0267 276° West 463 533 38,000  Level Memphis Center
Mon 09:43:44 AM 35.2258 -92.1744 277° West 457 526 38,000  Level Memphis Center
Mon 09:44:44 AM 35.2381 -92.3272 276° West 457 526 38,000  Level Memphis Center
Mon 09:45:44 AM 35.2503 -92.4775 276° West 452 520 38,000  Level Memphis Center
Mon 09:46:44 AM 35.2622 -92.6278 276° West 452 520 38,000  Level Memphis Center
Mon 09:47:44 AM 35.2797 -92.8014 277° West 458 527 38,000  Level Memphis Center
Mon 09:48:44 AM 35.2931 -92.9594 276° West 463 533 38,000  Level Memphis Center
Mon 09:49:44 AM 35.3028 -93.1022 275° West 457 526 38,000  Level Memphis Center
Mon 09:50:44 AM 35.3139 -93.2528 275° West 452 520 38,000  Level Memphis Center
Mon 09:51:44 AM 35.3228 -93.3981 274° West 444 511 38,000  Level Memphis Center
Mon 09:52:44 AM 35.3339 -93.5461 275° West 439 505 38,000  Level Memphis Center
Mon 09:53:44 AM 35.3467 -93.6942 276° West 439 505 38,000  Level Memphis Center
Mon 09:54:44 AM 35.3550 -93.8447 274° West 444 511 38,000  Level Memphis Center
Mon 09:55:44 AM 35.3675 -93.9956 276° West 444 511 38,000  Level Memphis Center
Mon 09:56:44 AM 35.3775 -94.1436 275° West 444 511 38,000  Level Memphis Center
Mon 09:57:44 AM 35.3875 -94.2917 275° West 444 511 38,000  Level Memphis Center
Mon 10:03:17 AM 35.3900 -95.1140 275° West 437 503 38,000  Level FlightAware ADS-B
Mon 10:04:12 AM 35.3880 -95.2500 269° West 438 504 38,000  Level FlightAware ADS-B
Mon 10:04:52 AM 35.3870 -95.3340 269° West 438 504 38,000  Level FlightAware ADS-B
Mon 10:05:47 AM 35.3880 -95.4880 271° West 442 509 38,000  Level FlightAware ADS-B
Mon 10:06:27 AM 35.3860 -95.5730 268° West 442 509 38,000  Level FlightAware ADS-B
Mon 10:07:07 AM 35.3850 -95.6580 269° West 442 509 38,000  Level FlightAware ADS-B
Mon 10:07:47 AM 35.3840 -95.7440 269° West 442 509 38,000  Level FlightAware ADS-B
Mon 10:08:22 AM 35.3860 -95.8690 271° West 420 483 38,000  Level FlightAware ADS-B
Mon 10:09:12 AM 35.3850 -95.9890 269° West 419 482 38,000  Level FlightAware ADS-B
Mon 10:09:52 AM 35.3840 -96.0850 269° West 418 481 38,000  Level FlightAware ADS-B
Mon 10:10:37 AM 35.3820 -96.1920 269° West 421 484 38,000  Level FlightAware ADS-B
Mon 10:11:17 AM 35.3810 -96.2850 269° West 418 481 38,000  Level FlightAware ADS-B
Mon 10:12:02 AM 35.3800 -96.3930 269° West 412 474 38,000  Level FlightAware ADS-B
Mon 10:12:42 AM 35.3790 -96.4870 269° West 414 476 38,000  Level FlightAware ADS-B
Mon 10:13:22 AM 35.3780 -96.5830 269° West 417 480 38,000  Level FlightAware ADS-B
Mon 10:14:07 AM 35.3760 -96.6830 269° West 417 480 38,000  Level FlightAware ADS-B
Mon 10:14:37 AM 35.3750 -96.7500 269° West 418 481 38,000  Level FlightAware ADS-B
Mon 10:15:17 AM 35.3730 -96.8510 269° West 419 482 38,000  Level FlightAware ADS-B
Mon 10:16:12 AM 35.3710 -96.9840 269° West 419 482 38,000  Level FlightAware ADS-B
Mon 10:16:47 AM 35.3700 -97.0580 269° West 419 482 38,000  Level FlightAware ADS-B
Mon 10:17:37 AM 35.3680 -97.1740 269° West 419 482 38,000  Level FlightAware ADS-B
Mon 10:18:17 AM 35.3650 -97.2680 268° West 419 482 38,000  Level FlightAware ADS-B
Mon 10:18:52 AM 35.3640 -97.3580 269° West 419 482 38,000  Level FlightAware ADS-B
Mon 10:19:32 AM 35.3620 -97.4550 269° West 418 481 38,000  Level FlightAware ADS-B
Mon 10:20:22 AM 35.3590 -97.5710 268° West 418 481 38,000  Level FlightAware ADS-B
Mon 10:21:07 AM 35.3570 -97.6780 269° West 422 486 38,000  Level FlightAware ADS-B
Mon 10:21:47 AM 35.3560 -97.7760 269° West 422 486 38,000  Level FlightAware ADS-B
Mon 10:22:32 AM 35.3550 -97.8710 269° West 421 484 38,000  Level FlightAware ADS-B
Mon 10:23:12 AM 35.3530 -97.9710 269° West 419 482 38,000  Level FlightAware ADS-B
Mon 10:24:02 AM 35.3510 -98.0870 269° West 419 482 38,000  Level FlightAware ADS-B
Mon 10:24:42 AM 35.3480 -98.1680 267° West 419 482 38,000  Level FlightAware ADS-B
Mon 10:25:32 AM 35.3460 -98.2690 269° West 419 482 38,000  Level FlightAware ADS-B
Mon 10:26:12 AM 35.3430 -98.3490 267° West 419 482 38,000  Level FlightAware ADS-B
Mon 10:27:07 AM 35.3430 -98.5240 270° West 416 479 38,000  Level FlightAware ADS-B
Mon 10:28:12 AM 35.3390 -98.6620 268° West 416 479 38,000  Level FlightAware ADS-B
Mon 10:28:52 AM 35.3370 -98.7420 268° West 416 479 38,000  Level FlightAware ADS-B
Mon 10:29:32 AM 35.3340 -98.8220 267° West 416 479 38,000  Level FlightAware ADS-B
Mon 10:30:12 AM 35.3320 -98.9020 268° West 416 479 38,000  Level FlightAware ADS-B
Mon 10:31:02 AM 35.3290 -99.0030 268° West 416 479 38,000  Level FlightAware ADS-B
Mon 10:31:42 AM 35.3270 -99.0830 268° West 416 479 38,000  Level FlightAware ADS-B
Mon 10:32:22 AM 35.3250 -99.1630 268° West 416 479 38,000  Level FlightAware ADS-B
Mon 10:33:02 AM 35.3220 -99.2430 267° West 416 479 38,000  Level FlightAware ADS-B
Mon 10:33:42 AM 35.3200 -99.3230 268° West 416 479 38,000  Level FlightAware ADS-B
Mon 10:34:32 AM 35.3170 -99.4230 268° West 416 479 38,000  Level FlightAware ADS-B
Mon 10:35:12 AM 35.3150 -99.5040 268° West 416 479 38,000  Level FlightAware ADS-B
Mon 10:35:52 AM 35.3130 -99.5840 268° West 416 479 38,000  Level FlightAware ADS-B
Mon 10:36:32 AM 35.3100 -99.6640 267° West 416 479 38,000 1,644 Level FlightAware ADS-B
Mon 10:37:05 AM 35.5383 -99.9122 267° West 435 501 40,000 1,263 Climbing Albuquerque Center
Mon 10:38:07 AM 35.5681 -100.0606 284° West 442 509 40,000  Level Albuquerque Center
Mon 10:39:09 AM 35.5950 -100.2078 283° West 441 507 40,000  Level Albuquerque Center
Mon 10:40:11 AM 35.6281 -100.3814 283° West 436 502 40,000  Level Albuquerque Center
Mon 10:41:13 AM 35.6550 -100.5272 283° West 436 502 40,000  Level Albuquerque Center
Mon 10:42:15 AM 35.6828 -100.6792 283° West 437 503 40,000  Level Albuquerque Center
Mon 10:43:17 AM 35.7083 -100.8242 282° West 436 502 40,000  Level Albuquerque Center
Mon 10:44:18 AM 35.7347 -100.9697 283° West 437 503 40,000  Level Albuquerque Center
Mon 10:45:20 AM 35.7614 -101.1181 283° West 442 509 40,000  Level Albuquerque Center
Mon 10:46:22 AM 35.7875 -101.2650 282° West 444 511 40,000  Level Albuquerque Center
Mon 10:47:24 AM 35.8069 -101.4383 278° West 441 507 40,000  Level Albuquerque Center
Mon 10:48:26 AM 35.8042 -101.5808 269° West 424 488 40,000  Level Albuquerque Center
Mon 10:49:28 AM 35.7997 -101.7219 268° West 418 481 40,000  Level Albuquerque Center
Mon 10:50:31 AM 35.7950 -101.8619 268° West 416 479 40,000 -432 Level Albuquerque Center
Mon 10:51:33 AM 35.7911 -102.0028 268° West 416 479 39,100 -1,210 Descending Albuquerque Center
Mon 10:52:35 AM 35.7856 -102.1744 268° West 421 484 37,500 -1,258 Descending Albuquerque Center
Mon 10:53:37 AM 35.7814 -102.3161 268° West 419 482 36,500 -726 Descending Albuquerque Center
Mon 10:54:39 AM 35.7758 -102.4564 267° West 415 478 36,000 -242 Descending Albuquerque Center
Mon 10:55:41 AM 35.7717 -102.5947 268° West 409 471 36,000  Level Albuquerque Center
Mon 10:56:43 AM 35.7675 -102.7319 268° West 404 465 36,000  Level Albuquerque Center
Mon 10:57:45 AM 35.7608 -102.8986 267° West 407 468 36,000  Level Albuquerque Center
Mon 10:58:47 AM 35.7569 -103.0289 268° West 406 467 36,000  Level Albuquerque Center
Mon 10:59:49 AM 35.7514 -103.1656 267° West 400 460 36,000  Level Albuquerque Center
Mon 11:00:51 AM 35.7464 -103.3031 267° West 400 460 36,000  Level Albuquerque Center
Mon 11:01:53 AM 35.7397 -103.4392 267° West 397 457 36,000  Level Albuquerque Center
Mon 11:02:55 AM 35.7328 -103.5997 267° West 400 460 36,000  Level Albuquerque Center
Mon 11:03:57 AM 35.7283 -103.7383 268° West 403 464 36,000  Level Albuquerque Center
Mon 11:04:59 AM 35.7217 -103.8742 267° West 399 459 36,000  Level Albuquerque Center
Mon 11:06:01 AM 35.7156 -104.0119 267° West 400 460 36,000  Level Albuquerque Center
Mon 11:07:03 AM 35.7089 -104.1497 267° West 402 463 36,000  Level Albuquerque Center
Mon 11:08:05 AM 35.7011 -104.3106 267° West 403 464 36,000  Level Albuquerque Center
Mon 11:09:07 AM 35.6931 -104.4483 266° West 403 464 36,000  Level Albuquerque Center
Mon 11:10:09 AM 35.6867 -104.5850 267° West 401 461 36,000  Level Albuquerque Center
Mon 11:11:11 AM 35.6792 -104.7217 266° West 399 459 36,000  Level Albuquerque Center
Mon 11:12:13 AM 35.6722 -104.8567 266° West 396 456 36,000  Level Albuquerque Center
Mon 11:13:15 AM 35.6658 -104.9933 267° West 397 457 36,000  Level Albuquerque Center
Mon 11:14:17 AM 35.6558 -105.1306 265° West 399 459 36,000  Level Albuquerque Center
Mon 11:20:02 AM 35.3870 -105.8870 265° West 411 473 36,000  Level FlightAware ADS-B
Mon 11:20:47 AM 35.3530 -105.9810 246° West 409 471 36,000  Level FlightAware ADS-B
Mon 11:21:27 AM 35.3220 -106.0650 246° West 404 465 36,000  Level FlightAware ADS-B
Mon 11:22:07 AM 35.2910 -106.1510 246° West 405 466 36,000  Level FlightAware ADS-B
Mon 11:22:52 AM 35.2570 -106.2410 245° Southwest 402 463 36,000  Level FlightAware ADS-B
Mon 11:23:27 AM 35.2300 -106.3150 246° West 404 465 36,000  Level FlightAware ADS-B
Mon 11:24:07 AM 35.1990 -106.4000 246° West 407 468 36,000  Level FlightAware ADS-B
Mon 11:24:52 AM 35.1640 -106.4940 246° West 409 471 36,000  Level FlightAware ADS-B
Mon 11:25:32 AM 35.1330 -106.5770 245° Southwest 408 470 36,000  Level FlightAware ADS-B
Mon 11:26:12 AM 35.1020 -106.6610 246° West 406 467 36,000  Level FlightAware ADS-B
Mon 11:26:57 AM 35.0660 -106.7570 245° Southwest 406 467 36,000  Level FlightAware ADS-B
Mon 11:27:37 AM 35.0440 -106.8440 253° West 404 465 36,000  Level FlightAware ADS-B
Mon 11:28:22 AM 35.0400 -106.9430 267° West 406 467 36,000  Level FlightAware ADS-B
Mon 11:29:02 AM 35.0380 -107.0350 269° West 407 468 36,000  Level FlightAware ADS-B
Mon 11:29:42 AM 35.0360 -107.1250 268° West 407 468 36,000  Level FlightAware ADS-B
Mon 11:30:27 AM 35.0330 -107.2310 268° West 405 466 36,000  Level FlightAware ADS-B
Mon 11:31:07 AM 35.0310 -107.3230 269° West 409 471 36,000  Level FlightAware ADS-B
Mon 11:31:42 AM 35.0290 -107.4010 268° West 410 472 36,000  Level FlightAware ADS-B
Mon 11:32:27 AM 35.0250 -107.5070 267° West 411 473 36,000  Level FlightAware ADS-B
Mon 11:33:07 AM 35.0230 -107.5970 268° West 412 474 36,000  Level FlightAware ADS-B
Mon 11:33:52 AM 35.0200 -107.7010 268° West 416 479 36,000  Level FlightAware ADS-B
Mon 11:34:37 AM 35.0160 -107.8110 267° West 414 476 36,000  Level FlightAware ADS-B
Mon 11:35:17 AM 35.0130 -107.8940 267° West 413 475 36,000  Level FlightAware ADS-B
Mon 11:35:57 AM 35.0100 -107.9910 268° West 411 473 36,000  Level FlightAware ADS-B
Mon 11:36:42 AM 35.0070 -108.0980 268° West 414 476 36,000  Level FlightAware ADS-B
Mon 11:37:22 AM 35.0030 -108.1910 267° West 415 478 36,000  Level FlightAware ADS-B
Mon 11:38:02 AM 35.0000 -108.2850 268° West 416 479 36,000  Level FlightAware ADS-B
Mon 11:38:42 AM 34.9970 -108.3780 268° West 414 476 36,000  Level FlightAware ADS-B
Mon 11:39:27 AM 34.9930 -108.4850 267° West 412 474 36,000  Level FlightAware ADS-B
Mon 11:40:07 AM 34.9890 -108.5710 267° West 411 473 36,000  Level FlightAware ADS-B
Mon 11:40:47 AM 34.9860 -108.6600 268° West 411 473 36,000  Level FlightAware ADS-B
Mon 11:41:37 AM 34.9810 -108.7870 267° West 413 475 36,000  Level FlightAware ADS-B
Mon 11:42:07 AM 34.9780 -108.8520 267° West 413 475 36,000  Level FlightAware ADS-B
Mon 11:42:37 AM 34.9760 -108.9160 268° West 413 475 36,000  Level FlightAware ADS-B
Mon 11:43:27 AM 34.9710 -109.0150 267° West 413 475 36,000  Level FlightAware ADS-B
Mon 11:44:17 AM 34.9660 -109.1460 267° West 412 474 36,000  Level FlightAware ADS-B
Mon 11:44:57 AM 34.9600 -109.2470 266° West 412 474 36,000  Level FlightAware ADS-B
Mon 11:45:37 AM 34.9540 -109.3370 265° West 413 475 36,000  Level FlightAware ADS-B
Mon 11:46:22 AM 34.9460 -109.4430 265° West 410 472 36,000  Level FlightAware ADS-B
Mon 11:47:02 AM 34.9400 -109.5330 265° West 408 470 36,000  Level FlightAware ADS-B
Mon 11:47:47 AM 34.9330 -109.6400 265° West 408 470 36,000  Level FlightAware ADS-B
Mon 11:48:12 AM 34.9290 -109.6940 265° West 407 468 36,000  Level FlightAware ADS-B
Mon 11:48:57 AM 34.9220 -109.7960 265° West 405 466 36,000  Level FlightAware ADS-B
Mon 11:49:32 AM 34.9170 -109.8740 266° West 405 466 36,000  Level FlightAware ADS-B
Mon 11:50:12 AM 34.9100 -109.9680 265° West 403 464 36,000  Level FlightAware ADS-B
Mon 11:50:57 AM 34.9020 -110.0720 265° West 404 465 36,000  Level FlightAware ADS-B
Mon 11:51:27 AM 34.8980 -110.1350 266° West 405 466 36,000  Level FlightAware ADS-B
Mon 11:52:12 AM 34.8900 -110.2410 265° West 407 468 36,000  Level FlightAware ADS-B
Mon 11:52:52 AM 34.8830 -110.3310 265° West 409 471 36,000  Level FlightAware ADS-B
Mon 11:53:37 AM 34.8760 -110.4330 265° West 409 471 36,000  Level FlightAware ADS-B
Mon 11:54:17 AM 34.8690 -110.5240 265° West 409 471 36,000  Level FlightAware ADS-B
Mon 11:55:02 AM 34.8600 -110.6310 264° West 409 471 36,000  Level FlightAware ADS-B
Mon 11:55:42 AM 34.8530 -110.7210 265° West 411 473 36,000  Level FlightAware ADS-B
Mon 11:56:22 AM 34.8460 -110.8120 265° West 411 473 36,000  Level FlightAware ADS-B
Mon 11:57:07 AM 34.8380 -110.9200 265° West 410 472 36,000  Level FlightAware ADS-B
Mon 11:57:37 AM 34.8320 -110.9850 264° West 410 472 36,000  Level FlightAware ADS-B
Mon 11:58:17 AM 34.8250 -111.0800 265° West 412 474 36,000  Level FlightAware ADS-B
Mon 11:58:57 AM 34.8170 -111.1710 264° West 409 471 36,000  Level FlightAware ADS-B
Mon 11:59:42 AM 34.8090 -111.2730 265° West 411 473 36,000  Level FlightAware ADS-B
Mon 12:00:22 PM 34.8010 -111.3660 264° West 413 475 36,000  Level FlightAware ADS-B
Mon 12:01:02 PM 34.7940 -111.4570 265° West 413 475 36,000  Level FlightAware ADS-B
Mon 12:01:47 PM 34.7840 -111.5630 263° West 410 472 36,000  Level FlightAware ADS-B
Mon 12:02:27 PM 34.7770 -111.6540 265° West 408 470 36,000  Level FlightAware ADS-B
Mon 12:03:07 PM 34.7690 -111.7440 264° West 409 471 36,000  Level FlightAware ADS-B
Mon 12:03:52 PM 34.7600 -111.8470 264° West 408 470 36,000  Level FlightAware ADS-B
Mon 12:04:32 PM 34.7520 -111.9370 264° West 409 471 36,000  Level FlightAware ADS-B
Mon 12:05:17 PM 34.7430 -112.0420 264° West 409 471 36,000  Level FlightAware ADS-B
Mon 12:05:57 PM 34.7350 -112.1300 264° West 412 474 36,000  Level FlightAware ADS-B
Mon 12:06:42 PM 34.7250 -112.2360 263° West 413 475 36,000  Level FlightAware ADS-B
Mon 12:07:22 PM 34.7170 -112.3260 264° West 415 478 36,000  Level FlightAware ADS-B
Mon 12:08:07 PM 34.7070 -112.4340 264° West 416 479 36,000  Level FlightAware ADS-B
Mon 12:08:47 PM 34.6980 -112.5270 263° West 419 482 36,000  Level FlightAware ADS-B
Mon 12:09:27 PM 34.6870 -112.6180 262° West 419 482 36,000  Level FlightAware ADS-B
Mon 12:10:07 PM 34.6750 -112.7110 261° West 418 481 36,000  Level FlightAware ADS-B
Mon 12:10:52 PM 34.6630 -112.8160 262° West 416 479 36,000  Level FlightAware ADS-B
Mon 12:11:32 PM 34.6520 -112.9050 261° West 415 478 36,000  Level FlightAware ADS-B
Mon 12:12:12 PM 34.6410 -113.0000 262° West 415 478 36,000  Level FlightAware ADS-B
Mon 12:12:57 PM 34.6290 -113.1040 262° West 417 480 36,000  Level FlightAware ADS-B
Mon 12:13:37 PM 34.6170 -113.1970 261° West 417 480 36,000  Level FlightAware ADS-B
Mon 12:14:22 PM 34.6050 -113.2990 262° West 416 479 36,000  Level FlightAware ADS-B
Mon 12:15:02 PM 34.5940 -113.3880 261° West 415 478 36,000  Level FlightAware ADS-B
Mon 12:15:42 PM 34.5820 -113.4830 261° West 416 479 36,000  Level FlightAware ADS-B
Mon 12:16:17 PM 34.5720 -113.5660 262° West 417 480 36,000  Level FlightAware ADS-B
Mon 12:17:02 PM 34.5560 -113.6690 259° West 422 486 36,000  Level FlightAware ADS-B
Mon 12:17:37 PM 34.5400 -113.7520 257° West 428 493 36,000  Level FlightAware ADS-B
Mon 12:18:17 PM 34.5210 -113.8450 256° West 430 495 36,000  Level FlightAware ADS-B
Mon 12:19:02 PM 34.5000 -113.9450 256° West 430 495 36,000  Level FlightAware ADS-B
Mon 12:19:42 PM 34.4840 -114.0350 258° West 425 489 36,000  Level FlightAware ADS-B
Mon 12:20:22 PM 34.4700 -114.1340 260° West 425 489 36,000  Level FlightAware ADS-B
Mon 12:21:07 PM 34.4530 -114.2420 259° West 428 493 36,000  Level FlightAware ADS-B
Mon 12:21:47 PM 34.4370 -114.3360 258° West 432 497 36,000  Level FlightAware ADS-B
Mon 12:22:27 PM 34.4220 -114.4280 259° West 432 497 36,000  Level FlightAware ADS-B
Mon 12:23:12 PM 34.4040 -114.5370 259° West 432 497 36,000  Level FlightAware ADS-B
Mon 12:23:52 PM 34.3890 -114.6290 259° West 432 497 36,000  Level FlightAware ADS-B
Mon 12:24:42 PM 34.3700 -114.7390 258° West 432 497 36,000  Level FlightAware ADS-B
Mon 12:25:32 PM 34.3510 -114.8600 259° West 434 499 36,000  Level FlightAware ADS-B
Mon 12:26:17 PM 34.3310 -114.9770 258° West 435 501 36,000 -75 Level FlightAware ADS-B
Mon 12:26:52 PM 34.3180 -115.0520 258° West 436 502 35,900 -857 Descending FlightAware ADS-B
Mon 12:27:27 PM 34.3030 -115.1420 259° West 445 512 35,000 -1,280 Descending FlightAware ADS-B
Mon 12:28:07 PM 34.2870 -115.2400 259° West 449 517 34,300 -1,125 Descending FlightAware ADS-B
Mon 12:28:47 PM 34.2700 -115.3390 258° West 452 520 33,500 -1,125 Descending FlightAware ADS-B
Mon 12:29:27 PM 34.2530 -115.4340 258° West 455 524 32,800 -847 Descending FlightAware ADS-B
Mon 12:30:12 PM 34.2340 -115.5460 258° West 451 519 32,300 -565 Descending FlightAware ADS-B
Mon 12:30:52 PM 34.2170 -115.6440 258° West 448 516 32,000 -212 Descending FlightAware ADS-B
Mon 12:31:37 PM 34.1980 -115.7570 259° West 448 516 32,000  Level FlightAware ADS-B
Mon 12:32:22 PM 34.1790 -115.8660 258° West 447 514 32,000  Level FlightAware ADS-B
Mon 12:33:02 PM 34.1610 -115.9650 258° West 448 516 32,000  Level FlightAware ADS-B
Mon 12:33:42 PM 34.1450 -116.0610 259° West 448 516 32,000 -353 Level FlightAware ADS-B
Mon 12:34:27 PM 34.1250 -116.1730 258° West 444 511 31,500 -1,200 Descending FlightAware ADS-B
Mon 12:35:07 PM 34.1070 -116.2710 258° West 432 497 30,300 -2,047 Descending FlightAware ADS-B
Mon 12:35:52 PM 34.0890 -116.3730 258° West 426 490 28,600 -2,259 Descending FlightAware ADS-B
Mon 12:36:32 PM 34.0720 -116.4660 258° West 422 486 27,100 -2,250 Descending FlightAware ADS-B
Mon 12:37:12 PM 34.0560 -116.5580 258° West 419 482 25,600 -2,259 Descending FlightAware ADS-B
Mon 12:37:57 PM 34.0370 -116.6620 258° West 413 475 23,900 -2,329 Descending FlightAware ADS-B
Mon 12:38:37 PM 34.0210 -116.7520 258° West 408 470 22,300 -2,175 Descending FlightAware ADS-B
Mon 12:39:17 PM 34.0060 -116.8310 257° West 403 464 21,000 -2,188 Descending FlightAware ADS-B
Mon 12:40:02 PM 33.9870 -116.9350 258° West 396 456 19,200 -2,329 Descending FlightAware ADS-B
Mon 12:40:42 PM 33.9710 -117.0210 257° West 389 448 17,700 -1,624 Descending FlightAware ADS-B
Mon 12:41:27 PM 33.9550 -117.1160 259° West 367 422 16,900 -988 Descending FlightAware ADS-B
Mon 12:42:07 PM 33.9470 -117.1940 263° West 351 404 16,300 -1,125 Descending FlightAware ADS-B
Mon 12:42:47 PM 33.9410 -117.2720 265° West 350 403 15,400 -1,412 Descending FlightAware ADS-B
Mon 12:43:32 PM 33.9340 -117.3570 264° West 342 394 14,300 -1,624 Descending FlightAware ADS-B
Mon 12:44:12 PM 33.9510 -117.4280 286° West 334 384 13,100 -1,835 Descending FlightAware ADS-B
Mon 12:44:57 PM 33.9790 -117.5070 293° West 332 382 11,700 -1,765 Descending FlightAware ADS-B
Mon 12:45:37 PM 34.0030 -117.5740 293° West 328 377 10,600 -1,074 Descending FlightAware ADS-B
Mon 12:46:32 PM 34.0090 -117.6680 274° West 307 353 10,000 -565 Descending FlightAware ADS-B
Mon 12:47:02 PM 34.0040 -117.7180 263° West 292 336 9,800 -764 Descending FlightAware ADS-B
Mon 12:47:27 PM 34.0000 -117.7570 263° West 290 334 9,300 -1,200 Descending FlightAware ADS-B
Mon 12:47:57 PM 33.9950 -117.8070 263° West 288 331 8,700 -1,309 Descending FlightAware ADS-B
Mon 12:48:22 PM 33.9910 -117.8450 263° West 287 330 8,100 -1,309 Descending FlightAware ADS-B
Mon 12:48:52 PM 33.9860 -117.8930 263° West 287 330 7,500 -1,000 Descending FlightAware ADS-B
Mon 12:49:22 PM 33.9820 -117.9400 264° West 276 318 7,100 -800 Descending FlightAware ADS-B
Mon 12:49:37 PM 33.9790 -117.9650 262° West 269 310 6,900 -1,200 Descending FlightAware ADS-B
Mon 12:50:02 PM 33.9760 -117.9990 264° West 267 307 6,300 -1,418 Descending FlightAware ADS-B
Mon 12:50:32 PM 33.9710 -118.0440 262° West 273 314 5,600 -1,309 Descending FlightAware ADS-B
Mon 12:50:57 PM 33.9670 -118.0840 263° West 273 314 5,100 -982 Descending FlightAware ADS-B
Mon 12:51:27 PM 33.9630 -118.1280 264° West 252 290 4,700 -1,300 Descending FlightAware ADS-B
Mon 12:51:57 PM 33.9590 -118.1680 263° West 225 259 3,800 -1,800 Descending FlightAware ADS-B
Mon 12:52:17 PM 33.9570 -118.1910 264° West 225 259 3,200 -1,467 Descending FlightAware ADS-B
Mon 12:52:42 PM 33.9540 -118.2170 262° West 202 232 2,700 -982 Descending FlightAware ADS-B
Mon 12:53:12 PM 33.9510 -118.2460 263° West 166 191 2,300 -800 Descending FlightAware ADS-B
Mon 12:53:42 PM 33.9480 -118.2740 263° West 152 175 1,900 -700 Descending FlightAware ADS-B
Mon 12:54:12 PM 33.9460 -118.2930 263° West 149 171 1,600 -764 Descending FlightAware ADS-B
Mon 12:54:37 PM 33.9440 -118.3130 263° West 146 168 1,200 -900 Descending FlightAware ADS-B
Mon 12:54:52 PM 33.9430 -118.3250 264° West 145 167 1,000 -686 Descending FlightAware ADS-B
Mon 12:55:12 PM 33.9420 -118.3400 265° West 151 174 800 -720 Descending FlightAware ADS-B
Mon 12:55:42 PM 33.9390 -118.3630 261° West 149 171 400 -750 Descending FlightAware ADS-B
Mon 12:55:52 PM 33.9380 -118.3740 264° West 145 167 300 -600 Descending FlightAware ADS-B
Mon 12:56:12 PM 33.9370 -118.3880 265° West 145 167 -900 Descending FlightAware ADS-B
Mon 12:57:02 PM 33.9360 -118.4070 266° West 143 165  Level FlightAware ADS-B
Mon 12:57:32 PM 33.9370 -118.4090 301° West 13 15  Level FlightAware ADS-B

Login

Don't have an account? Register now (free) for customized features, flight alerts, and more!